sensor_id;sensor_type;location;lat;lon;timestamp;P1;durP1;ratioP1;P2;durP2;ratioP2
47599;SDS011;33323;52.124;6.018;2022-10-31T00:01:23;8.23;;;4.63;;
47599;SDS011;33323;52.124;6.018;2022-10-31T00:06:24;8.20;;;3.05;;
47599;SDS011;33323;52.124;6.018;2022-10-31T00:08:55;8.88;;;3.83;;
47599;SDS011;33323;52.124;6.018;2022-10-31T00:11:26;10.75;;;4.88;;
47599;SDS011;33323;52.124;6.018;2022-10-31T00:13:53;11.07;;;4.90;;
47599;SDS011;33323;52.124;6.018;2022-10-31T00:16:21;10.05;;;4.18;;
47599;SDS011;33323;52.124;6.018;2022-10-31T00:18:50;10.85;;;3.92;;
47599;SDS011;33323;52.124;6.018;2022-10-31T00:21:26;9.68;;;3.47;;
47599;SDS011;33323;52.124;6.018;2022-10-31T00:23:53;20.08;;;4.70;;
47599;SDS011;33323;52.124;6.018;2022-10-31T00:26:21;13.32;;;5.40;;
47599;SDS011;33323;52.124;6.018;2022-10-31T00:28:48;10.73;;;4.85;;
47599;SDS011;33323;52.124;6.018;2022-10-31T00:31:15;15.43;;;5.90;;
47599;SDS011;33323;52.124;6.018;2022-10-31T00:33:42;9.57;;;5.07;;
47599;SDS011;33323;52.124;6.018;2022-10-31T00:36:11;16.55;;;6.68;;
47599;SDS011;33323;52.124;6.018;2022-10-31T00:38:43;10.05;;;6.05;;
47599;SDS011;33323;52.124;6.018;2022-10-31T00:41:12;15.20;;;6.20;;
47599;SDS011;33323;52.124;6.018;2022-10-31T00:43:42;16.95;;;6.53;;
47599;SDS011;33323;52.124;6.018;2022-10-31T00:46:10;12.55;;;5.22;;
47599;SDS011;33323;52.124;6.018;2022-10-31T00:48:39;11.45;;;4.93;;
47599;SDS011;33323;52.124;6.018;2022-10-31T00:51:07;8.40;;;4.53;;
47599;SDS011;33323;52.124;6.018;2022-10-31T00:53:34;6.93;;;4.20;;
47599;SDS011;33323;52.124;6.018;2022-10-31T00:56:02;12.48;;;6.25;;
47599;SDS011;33323;52.124;6.018;2022-10-31T00:58:29;10.05;;;5.10;;
47599;SDS011;33323;52.124;6.018;2022-10-31T01:00:56;10.02;;;5.55;;
47599;SDS011;33323;52.124;6.018;2022-10-31T01:03:24;12.85;;;5.82;;
47599;SDS011;33323;52.124;6.018;2022-10-31T01:08:31;19.20;;;8.15;;
47599;SDS011;33323;52.124;6.018;2022-10-31T01:13:39;12.45;;;6.65;;
47599;SDS011;33323;52.124;6.018;2022-10-31T01:16:07;12.75;;;7.30;;
47599;SDS011;33323;52.124;6.018;2022-10-31T01:18:39;11.55;;;6.60;;
47599;SDS011;33323;52.124;6.018;2022-10-31T01:21:11;15.95;;;6.47;;
47599;SDS011;33323;52.124;6.018;2022-10-31T01:23:47;12.48;;;6.25;;
47599;SDS011;33323;52.124;6.018;2022-10-31T01:26:15;15.07;;;7.53;;
47599;SDS011;33323;52.124;6.018;2022-10-31T01:28:55;16.42;;;8.00;;
47599;SDS011;33323;52.124;6.018;2022-10-31T01:31:26;14.93;;;7.75;;
47599;SDS011;33323;52.124;6.018;2022-10-31T01:33:58;14.48;;;8.45;;
47599;SDS011;33323;52.124;6.018;2022-10-31T01:36:26;16.67;;;8.30;;
47599;SDS011;33323;52.124;6.018;2022-10-31T01:39:00;15.52;;;7.18;;
47599;SDS011;33323;52.124;6.018;2022-10-31T01:41:32;16.77;;;8.18;;
47599;SDS011;33323;52.124;6.018;2022-10-31T01:44:44;16.23;;;8.25;;
47599;SDS011;33323;52.124;6.018;2022-10-31T01:46:50;16.02;;;7.85;;
47599;SDS011;33323;52.124;6.018;2022-10-31T01:49:31;22.17;;;8.90;;
47599;SDS011;33323;52.124;6.018;2022-10-31T01:52:11;14.48;;;7.82;;
47599;SDS011;33323;52.124;6.018;2022-10-31T01:57:29;17.77;;;7.20;;
47599;SDS011;33323;52.124;6.018;2022-10-31T01:59:59;12.52;;;7.53;;
47599;SDS011;33323;52.124;6.018;2022-10-31T02:02:38;16.67;;;7.22;;
47599;SDS011;33323;52.124;6.018;2022-10-31T02:05:08;8.95;;;5.72;;
47599;SDS011;33323;52.124;6.018;2022-10-31T02:07:40;14.90;;;6.68;;
47599;SDS011;33323;52.124;6.018;2022-10-31T02:10:13;12.43;;;6.22;;
47599;SDS011;33323;52.124;6.018;2022-10-31T02:12:41;10.95;;;5.28;;
47599;SDS011;33323;52.124;6.018;2022-10-31T02:15:09;6.78;;;4.85;;
47599;SDS011;33323;52.124;6.018;2022-10-31T02:17:36;6.93;;;4.43;;
47599;SDS011;33323;52.124;6.018;2022-10-31T02:34:36;11.10;;;5.18;;
47599;SDS011;33323;52.124;6.018;2022-10-31T02:37:25;10.73;;;5.20;;
47599;SDS011;33323;52.124;6.018;2022-10-31T02:43:22;13.55;;;5.20;;
47599;SDS011;33323;52.124;6.018;2022-10-31T02:48:40;9.82;;;5.82;;
47599;SDS011;33323;52.124;6.018;2022-10-31T02:51:09;8.15;;;4.88;;
47599;SDS011;33323;52.124;6.018;2022-10-31T02:53:38;9.48;;;5.07;;
47599;SDS011;33323;52.124;6.018;2022-10-31T02:56:12;8.00;;;4.38;;
47599;SDS011;33323;52.124;6.018;2022-10-31T02:58:45;7.90;;;3.92;;
47599;SDS011;33323;52.124;6.018;2022-10-31T03:13:29;9.05;;;4.68;;
47599;SDS011;33323;52.124;6.018;2022-10-31T03:15:51;5.55;;;3.13;;
47599;SDS011;33323;52.124;6.018;2022-10-31T03:18:29;16.55;;;3.15;;
47599;SDS011;33323;52.124;6.018;2022-10-31T03:23:52;63.70;;;6.07;;
47599;SDS011;33323;52.124;6.018;2022-10-31T03:26:21;6.97;;;4.47;;
47599;SDS011;33323;52.124;6.018;2022-10-31T03:29:02;6.85;;;3.63;;
47599;SDS011;33323;52.124;6.018;2022-10-31T03:31:35;3.63;;;2.13;;
47599;SDS011;33323;52.124;6.018;2022-10-31T03:34:12;10.00;;;3.15;;
47599;SDS011;33323;52.124;6.018;2022-10-31T03:36:42;4.07;;;2.45;;
47599;SDS011;33323;52.124;6.018;2022-10-31T03:39:14;9.13;;;2.70;;
47599;SDS011;33323;52.124;6.018;2022-10-31T03:41:46;4.20;;;1.73;;
47599;SDS011;33323;52.124;6.018;2022-10-31T03:44:20;2.78;;;1.63;;
47599;SDS011;33323;52.124;6.018;2022-10-31T03:46:56;3.90;;;2.33;;
47599;SDS011;33323;52.124;6.018;2022-10-31T03:49:24;3.33;;;2.20;;
47599;SDS011;33323;52.124;6.018;2022-10-31T03:54:42;6.10;;;2.13;;
47599;SDS011;33323;52.124;6.018;2022-10-31T03:57:21;13.05;;;3.45;;
47599;SDS011;33323;52.124;6.018;2022-10-31T04:00:08;3.33;;;1.80;;
47599;SDS011;33323;52.124;6.018;2022-10-31T04:02:49;46.85;;;5.35;;
47599;SDS011;33323;52.124;6.018;2022-10-31T04:05:27;207.70;;;17.83;;
47599;SDS011;33323;52.124;6.018;2022-10-31T04:07:58;135.57;;;11.57;;
47599;SDS011;33323;52.124;6.018;2022-10-31T04:10:30;43.10;;;5.97;;
47599;SDS011;33323;52.124;6.018;2022-10-31T04:13:01;3.15;;;2.25;;
47599;SDS011;33323;52.124;6.018;2022-10-31T04:15:44;7.88;;;4.07;;
47599;SDS011;33323;52.124;6.018;2022-10-31T04:18:15;3.72;;;2.60;;
47599;SDS011;33323;52.124;6.018;2022-10-31T04:20:42;5.03;;;2.75;;
47599;SDS011;33323;52.124;6.018;2022-10-31T04:23:16;6.88;;;3.65;;
47599;SDS011;33323;52.124;6.018;2022-10-31T04:25:52;9.07;;;4.03;;
47599;SDS011;33323;52.124;6.018;2022-10-31T04:28:19;5.45;;;4.15;;
47599;SDS011;33323;52.124;6.018;2022-10-31T04:30:47;8.57;;;3.88;;
47599;SDS011;33323;52.124;6.018;2022-10-31T04:33:15;13.27;;;4.65;;
47599;SDS011;33323;52.124;6.018;2022-10-31T04:35:44;21.85;;;6.47;;
47599;SDS011;33323;52.124;6.018;2022-10-31T04:38:12;37.97;;;5.65;;
47599;SDS011;33323;52.124;6.018;2022-10-31T04:40:39;21.33;;;6.72;;
47599;SDS011;33323;52.124;6.018;2022-10-31T04:43:27;8.43;;;5.00;;
47599;SDS011;33323;52.124;6.018;2022-10-31T04:45:53;8.88;;;5.00;;
47599;SDS011;33323;52.124;6.018;2022-10-31T04:48:21;10.52;;;5.40;;
47599;SDS011;33323;52.124;6.018;2022-10-31T04:50:49;9.98;;;3.88;;
47599;SDS011;33323;52.124;6.018;2022-10-31T04:53:16;30.98;;;6.32;;
47599;SDS011;33323;52.124;6.018;2022-10-31T04:56:06;7.75;;;4.05;;
47599;SDS011;33323;52.124;6.018;2022-10-31T04:58:40;8.23;;;4.07;;
47599;SDS011;33323;52.124;6.018;2022-10-31T05:01:09;8.05;;;4.70;;
47599;SDS011;33323;52.124;6.018;2022-10-31T05:03:36;9.90;;;5.38;;
47599;SDS011;33323;52.124;6.018;2022-10-31T05:06:06;12.40;;;5.63;;
47599;SDS011;33323;52.124;6.018;2022-10-31T05:08:34;9.00;;;5.20;;
47599;SDS011;33323;52.124;6.018;2022-10-31T05:11:06;11.55;;;4.38;;
47599;SDS011;33323;52.124;6.018;2022-10-31T05:13:33;8.75;;;5.60;;
47599;SDS011;33323;52.124;6.018;2022-10-31T05:16:11;9.30;;;5.07;;
47599;SDS011;33323;52.124;6.018;2022-10-31T05:18:57;11.33;;;5.43;;
47599;SDS011;33323;52.124;6.018;2022-10-31T05:22:02;12.93;;;4.85;;
47599;SDS011;33323;52.124;6.018;2022-10-31T05:24:31;9.73;;;5.80;;
47599;SDS011;33323;52.124;6.018;2022-10-31T05:26:58;12.70;;;6.05;;
47599;SDS011;33323;52.124;6.018;2022-10-31T05:29:26;8.13;;;5.00;;
47599;SDS011;33323;52.124;6.018;2022-10-31T05:31:53;19.52;;;6.47;;
47599;SDS011;33323;52.124;6.018;2022-10-31T05:34:49;9.32;;;5.70;;
47599;SDS011;33323;52.124;6.018;2022-10-31T05:37:42;9.35;;;4.90;;
47599;SDS011;33323;52.124;6.018;2022-10-31T05:40:11;9.18;;;5.13;;
47599;SDS011;33323;52.124;6.018;2022-10-31T05:42:42;9.10;;;4.10;;
47599;SDS011;33323;52.124;6.018;2022-10-31T05:45:12;7.70;;;4.20;;
47599;SDS011;33323;52.124;6.018;2022-10-31T05:48:07;11.27;;;3.97;;
47599;SDS011;33323;52.124;6.018;2022-10-31T05:50:53;10.18;;;4.05;;
47599;SDS011;33323;52.124;6.018;2022-10-31T05:53:21;9.38;;;5.65;;
47599;SDS011;33323;52.124;6.018;2022-10-31T05:55:48;7.18;;;4.70;;
47599;SDS011;33323;52.124;6.018;2022-10-31T05:58:18;10.50;;;5.35;;
47599;SDS011;33323;52.124;6.018;2022-10-31T06:00:58;13.07;;;5.30;;
47599;SDS011;33323;52.124;6.018;2022-10-31T06:03:25;10.80;;;4.88;;
47599;SDS011;33323;52.124;6.018;2022-10-31T06:05:54;9.02;;;4.43;;
47599;SDS011;33323;52.124;6.018;2022-10-31T06:08:29;13.30;;;5.45;;
47599;SDS011;33323;52.124;6.018;2022-10-31T06:11:01;10.63;;;5.57;;
47599;SDS011;33323;52.124;6.018;2022-10-31T06:13:46;9.38;;;4.50;;
47599;SDS011;33323;52.124;6.018;2022-10-31T06:16:19;8.73;;;5.13;;
47599;SDS011;33323;52.124;6.018;2022-10-31T06:18:47;8.07;;;4.15;;
47599;SDS011;33323;52.124;6.018;2022-10-31T06:21:14;6.65;;;4.30;;
47599;SDS011;33323;52.124;6.018;2022-10-31T06:23:45;7.20;;;4.28;;
47599;SDS011;33323;52.124;6.018;2022-10-31T06:26:32;8.05;;;4.00;;
47599;SDS011;33323;52.124;6.018;2022-10-31T06:28:59;7.95;;;5.07;;
47599;SDS011;33323;52.124;6.018;2022-10-31T06:31:58;7.45;;;4.63;;
47599;SDS011;33323;52.124;6.018;2022-10-31T06:34:27;11.18;;;5.63;;
47599;SDS011;33323;52.124;6.018;2022-10-31T06:36:54;12.10;;;5.60;;
47599;SDS011;33323;52.124;6.018;2022-10-31T06:39:24;11.73;;;5.25;;
47599;SDS011;33323;52.124;6.018;2022-10-31T06:41:52;10.07;;;4.68;;
47599;SDS011;33323;52.124;6.018;2022-10-31T06:44:20;14.45;;;4.70;;
47599;SDS011;33323;52.124;6.018;2022-10-31T06:46:53;8.80;;;4.53;;
47599;SDS011;33323;52.124;6.018;2022-10-31T06:49:44;16.85;;;5.50;;
47599;SDS011;33323;52.124;6.018;2022-10-31T06:52:15;11.82;;;4.20;;
47599;SDS011;33323;52.124;6.018;2022-10-31T06:54:42;8.43;;;3.70;;
47599;SDS011;33323;52.124;6.018;2022-10-31T06:57:09;9.02;;;3.80;;
47599;SDS011;33323;52.124;6.018;2022-10-31T06:59:37;11.80;;;4.45;;
47599;SDS011;33323;52.124;6.018;2022-10-31T07:02:19;15.00;;;4.95;;
47599;SDS011;33323;52.124;6.018;2022-10-31T07:04:47;11.35;;;3.95;;
47599;SDS011;33323;52.124;6.018;2022-10-31T07:07:16;17.52;;;5.38;;
47599;SDS011;33323;52.124;6.018;2022-10-31T07:09:44;8.60;;;4.00;;
47599;SDS011;33323;52.124;6.018;2022-10-31T07:12:15;15.57;;;5.35;;
47599;SDS011;33323;52.124;6.018;2022-10-31T07:14:51;9.68;;;4.35;;
47599;SDS011;33323;52.124;6.018;2022-10-31T07:17:18;8.95;;;4.53;;
47599;SDS011;33323;52.124;6.018;2022-10-31T07:19:45;10.90;;;4.63;;
47599;SDS011;33323;52.124;6.018;2022-10-31T07:22:15;11.18;;;3.88;;
47599;SDS011;33323;52.124;6.018;2022-10-31T07:24:43;9.20;;;4.32;;
47599;SDS011;33323;52.124;6.018;2022-10-31T07:27:29;9.90;;;4.53;;
47599;SDS011;33323;52.124;6.018;2022-10-31T07:30:09;12.85;;;5.82;;
47599;SDS011;33323;52.124;6.018;2022-10-31T07:35:07;9.45;;;3.90;;
47599;SDS011;33323;52.124;6.018;2022-10-31T07:37:45;6.97;;;3.42;;
47599;SDS011;33323;52.124;6.018;2022-10-31T07:40:14;10.65;;;4.80;;
47599;SDS011;33323;52.124;6.018;2022-10-31T07:42:43;10.75;;;4.43;;
47599;SDS011;33323;52.124;6.018;2022-10-31T07:45:34;10.15;;;3.40;;
47599;SDS011;33323;52.124;6.018;2022-10-31T07:48:20;13.30;;;4.65;;
47599;SDS011;33323;52.124;6.018;2022-10-31T07:51:06;8.90;;;4.78;;
47599;SDS011;33323;52.124;6.018;2022-10-31T07:54:02;8.70;;;4.32;;
47599;SDS011;33323;52.124;6.018;2022-10-31T07:56:30;13.38;;;4.78;;
47599;SDS011;33323;52.124;6.018;2022-10-31T07:58:58;7.22;;;4.18;;
47599;SDS011;33323;52.124;6.018;2022-10-31T08:01:25;15.07;;;5.25;;
47599;SDS011;33323;52.124;6.018;2022-10-31T08:04:12;11.68;;;7.85;;
47599;SDS011;33323;52.124;6.018;2022-10-31T08:06:59;9.48;;;6.47;;
47599;SDS011;33323;52.124;6.018;2022-10-31T08:09:30;11.15;;;6.15;;
47599;SDS011;33323;52.124;6.018;2022-10-31T08:12:02;12.13;;;6.47;;
47599;SDS011;33323;52.124;6.018;2022-10-31T08:14:30;12.48;;;6.22;;
47599;SDS011;33323;52.124;6.018;2022-10-31T08:16:57;11.85;;;5.88;;
47599;SDS011;33323;52.124;6.018;2022-10-31T08:19:32;17.35;;;6.25;;
47599;SDS011;33323;52.124;6.018;2022-10-31T08:21:59;20.30;;;5.70;;
47599;SDS011;33323;52.124;6.018;2022-10-31T08:24:27;17.23;;;7.10;;
47599;SDS011;33323;52.124;6.018;2022-10-31T08:26:56;14.85;;;6.40;;
47599;SDS011;33323;52.124;6.018;2022-10-31T08:29:23;15.02;;;9.27;;
47599;SDS011;33323;52.124;6.018;2022-10-31T08:31:50;10.98;;;7.22;;
47599;SDS011;33323;52.124;6.018;2022-10-31T08:34:36;16.90;;;8.32;;
47599;SDS011;33323;52.124;6.018;2022-10-31T08:37:22;15.85;;;9.95;;
47599;SDS011;33323;52.124;6.018;2022-10-31T08:39:53;20.50;;;10.75;;
47599;SDS011;33323;52.124;6.018;2022-10-31T08:42:20;18.30;;;10.02;;
47599;SDS011;33323;52.124;6.018;2022-10-31T08:44:47;17.52;;;10.13;;
47599;SDS011;33323;52.124;6.018;2022-10-31T08:47:18;23.45;;;11.45;;
47599;SDS011;33323;52.124;6.018;2022-10-31T08:49:47;22.65;;;12.45;;
47599;SDS011;33323;52.124;6.018;2022-10-31T08:52:14;18.15;;;11.82;;
47599;SDS011;33323;52.124;6.018;2022-10-31T08:54:43;20.67;;;12.55;;
47599;SDS011;33323;52.124;6.018;2022-10-31T08:57:41;19.75;;;13.13;;
47599;SDS011;33323;52.124;6.018;2022-10-31T09:00:10;17.88;;;11.45;;
47599;SDS011;33323;52.124;6.018;2022-10-31T09:03:11;18.73;;;11.13;;
47599;SDS011;33323;52.124;6.018;2022-10-31T09:05:41;21.38;;;12.70;;
47599;SDS011;33323;52.124;6.018;2022-10-31T09:08:10;22.77;;;11.15;;
47599;SDS011;33323;52.124;6.018;2022-10-31T09:10:43;20.58;;;10.30;;
47599;SDS011;33323;52.124;6.018;2022-10-31T09:13:15;18.30;;;11.07;;
47599;SDS011;33323;52.124;6.018;2022-10-31T09:16:05;19.90;;;11.75;;
47599;SDS011;33323;52.124;6.018;2022-10-31T09:18:34;18.77;;;11.18;;
47599;SDS011;33323;52.124;6.018;2022-10-31T09:21:01;21.70;;;11.93;;
47599;SDS011;33323;52.124;6.018;2022-10-31T09:23:29;21.05;;;11.52;;
47599;SDS011;33323;52.124;6.018;2022-10-31T09:25:58;26.27;;;11.02;;
47599;SDS011;33323;52.124;6.018;2022-10-31T09:28:39;26.17;;;13.27;;
47599;SDS011;33323;52.124;6.018;2022-10-31T09:31:12;28.92;;;12.88;;
47599;SDS011;33323;52.124;6.018;2022-10-31T09:34:02;23.83;;;12.63;;
47599;SDS011;33323;52.124;6.018;2022-10-31T09:36:36;23.52;;;13.10;;
47599;SDS011;33323;52.124;6.018;2022-10-31T09:39:17;29.02;;;12.82;;
47599;SDS011;33323;52.124;6.018;2022-10-31T09:41:56;23.25;;;14.00;;
47599;SDS011;33323;52.124;6.018;2022-10-31T09:44:51;23.30;;;12.85;;
47599;SDS011;33323;52.124;6.018;2022-10-31T09:50:38;30.35;;;16.52;;
47599;SDS011;33323;52.124;6.018;2022-10-31T09:54:04;30.33;;;17.20;;
47599;SDS011;33323;52.124;6.018;2022-10-31T09:56:40;31.23;;;17.67;;
47599;SDS011;33323;52.124;6.018;2022-10-31T09:59:14;32.92;;;17.90;;
47599;SDS011;33323;52.124;6.018;2022-10-31T10:02:04;37.97;;;17.60;;
47599;SDS011;33323;52.124;6.018;2022-10-31T10:05:12;32.55;;;18.98;;
47599;SDS011;33323;52.124;6.018;2022-10-31T10:10:50;30.48;;;18.83;;
47599;SDS011;33323;52.124;6.018;2022-10-31T10:14:17;36.22;;;19.73;;
47599;SDS011;33323;52.124;6.018;2022-10-31T10:19:56;34.17;;;18.15;;
47599;SDS011;33323;52.124;6.018;2022-10-31T10:27:48;26.85;;;14.40;;
47599;SDS011;33323;52.124;6.018;2022-10-31T10:30:41;24.33;;;14.98;;
47599;SDS011;33323;52.124;6.018;2022-10-31T10:33:35;28.17;;;14.77;;
47599;SDS011;33323;52.124;6.018;2022-10-31T10:36:17;27.33;;;15.85;;
47599;SDS011;33323;52.124;6.018;2022-10-31T10:39:07;25.27;;;15.40;;
47599;SDS011;33323;52.124;6.018;2022-10-31T10:44:42;27.08;;;14.05;;
47599;SDS011;33323;52.124;6.018;2022-10-31T10:47:39;25.23;;;13.57;;
47599;SDS011;33323;52.124;6.018;2022-10-31T10:50:23;27.92;;;15.20;;
47599;SDS011;33323;52.124;6.018;2022-10-31T10:53:07;26.52;;;15.98;;
47599;SDS011;33323;52.124;6.018;2022-10-31T10:58:55;33.67;;;17.13;;
47599;SDS011;33323;52.124;6.018;2022-10-31T11:01:23;27.17;;;15.30;;
47599;SDS011;33323;52.124;6.018;2022-10-31T11:03:51;27.33;;;15.90;;
47599;SDS011;33323;52.124;6.018;2022-10-31T11:06:19;24.80;;;15.07;;
47599;SDS011;33323;52.124;6.018;2022-10-31T11:08:52;24.63;;;14.40;;
47599;SDS011;33323;52.124;6.018;2022-10-31T11:11:23;24.73;;;14.90;;
47599;SDS011;33323;52.124;6.018;2022-10-31T11:14:12;26.80;;;15.27;;
47599;SDS011;33323;52.124;6.018;2022-10-31T11:16:42;29.52;;;13.73;;
47599;SDS011;33323;52.124;6.018;2022-10-31T11:19:16;26.42;;;13.73;;
47599;SDS011;33323;52.124;6.018;2022-10-31T11:21:52;29.13;;;12.45;;
47599;SDS011;33323;52.124;6.018;2022-10-31T11:24:22;21.92;;;12.23;;
47599;SDS011;33323;52.124;6.018;2022-10-31T11:27:02;22.80;;;12.43;;
47599;SDS011;33323;52.124;6.018;2022-10-31T11:29:40;21.92;;;12.77;;
47599;SDS011;33323;52.124;6.018;2022-10-31T11:32:26;19.77;;;12.13;;
47599;SDS011;33323;52.124;6.018;2022-10-31T11:34:54;20.42;;;12.18;;
47599;SDS011;33323;52.124;6.018;2022-10-31T11:37:27;19.85;;;12.27;;
47599;SDS011;33323;52.124;6.018;2022-10-31T11:39:59;25.98;;;12.43;;
47599;SDS011;33323;52.124;6.018;2022-10-31T11:42:39;22.75;;;11.73;;
47599;SDS011;33323;52.124;6.018;2022-10-31T11:47:52;26.42;;;13.50;;
47599;SDS011;33323;52.124;6.018;2022-10-31T11:50:39;26.98;;;13.75;;
47599;SDS011;33323;52.124;6.018;2022-10-31T11:53:14;28.75;;;14.18;;
47599;SDS011;33323;52.124;6.018;2022-10-31T11:55:44;22.35;;;13.50;;
47599;SDS011;33323;52.124;6.018;2022-10-31T11:58:22;25.95;;;15.00;;
47599;SDS011;33323;52.124;6.018;2022-10-31T12:00:55;33.72;;;14.80;;
47599;SDS011;33323;52.124;6.018;2022-10-31T12:03:28;38.83;;;17.80;;
47599;SDS011;33323;52.124;6.018;2022-10-31T12:06:26;37.20;;;16.63;;
47599;SDS011;33323;52.124;6.018;2022-10-31T12:09:18;28.92;;;14.95;;
47599;SDS011;33323;52.124;6.018;2022-10-31T12:14:44;31.25;;;14.40;;
47599;SDS011;33323;52.124;6.018;2022-10-31T12:17:35;29.60;;;15.45;;
47599;SDS011;33323;52.124;6.018;2022-10-31T12:23:20;32.05;;;16.70;;
47599;SDS011;33323;52.124;6.018;2022-10-31T12:26:18;27.65;;;15.88;;
47599;SDS011;33323;52.124;6.018;2022-10-31T12:29:09;31.00;;;15.63;;
47599;SDS011;33323;52.124;6.018;2022-10-31T12:35:10;32.92;;;17.17;;
47599;SDS011;33323;52.124;6.018;2022-10-31T12:37:59;31.48;;;15.70;;
47599;SDS011;33323;52.124;6.018;2022-10-31T12:43:46;26.23;;;13.07;;
47599;SDS011;33323;52.124;6.018;2022-10-31T12:49:37;28.33;;;15.80;;
47599;SDS011;33323;52.124;6.018;2022-10-31T12:52:37;28.05;;;15.07;;
47599;SDS011;33323;52.124;6.018;2022-10-31T12:55:29;35.33;;;16.20;;
47599;SDS011;33323;52.124;6.018;2022-10-31T12:58:29;32.20;;;15.15;;
47599;SDS011;33323;52.124;6.018;2022-10-31T13:01:24;27.17;;;13.60;;
47599;SDS011;33323;52.124;6.018;2022-10-31T13:06:34;25.58;;;14.43;;
47599;SDS011;33323;52.124;6.018;2022-10-31T13:09:11;29.25;;;15.10;;
47599;SDS011;33323;52.124;6.018;2022-10-31T13:11:56;30.17;;;14.68;;
47599;SDS011;33323;52.124;6.018;2022-10-31T13:14:39;25.42;;;13.23;;
47599;SDS011;33323;52.124;6.018;2022-10-31T13:17:28;29.45;;;13.50;;
47599;SDS011;33323;52.124;6.018;2022-10-31T13:22:56;32.35;;;14.52;;
47599;SDS011;33323;52.124;6.018;2022-10-31T13:26:06;25.10;;;13.93;;
47599;SDS011;33323;52.124;6.018;2022-10-31T13:31:12;28.38;;;13.18;;
47599;SDS011;33323;52.124;6.018;2022-10-31T13:33:45;22.52;;;13.90;;
47599;SDS011;33323;52.124;6.018;2022-10-31T13:39:30;28.25;;;13.48;;
47599;SDS011;33323;52.124;6.018;2022-10-31T13:42:43;30.67;;;13.70;;
47599;SDS011;33323;52.124;6.018;2022-10-31T13:45:31;25.60;;;13.80;;
47599;SDS011;33323;52.124;6.018;2022-10-31T13:47:59;25.65;;;12.95;;
47599;SDS011;33323;52.124;6.018;2022-10-31T13:50:58;26.23;;;13.30;;
47599;SDS011;33323;52.124;6.018;2022-10-31T13:53:39;22.13;;;12.38;;
47599;SDS011;33323;52.124;6.018;2022-10-31T13:56:48;24.10;;;13.13;;
47599;SDS011;33323;52.124;6.018;2022-10-31T13:59:18;25.60;;;13.02;;
47599;SDS011;33323;52.124;6.018;2022-10-31T14:01:55;27.40;;;13.30;;
47599;SDS011;33323;52.124;6.018;2022-10-31T14:04:32;27.58;;;12.60;;
47599;SDS011;33323;52.124;6.018;2022-10-31T14:07:22;27.58;;;13.10;;
47599;SDS011;33323;52.124;6.018;2022-10-31T14:09:52;29.48;;;12.13;;
47599;SDS011;33323;52.124;6.018;2022-10-31T14:12:36;27.42;;;14.52;;
47599;SDS011;33323;52.124;6.018;2022-10-31T14:20:22;29.55;;;14.48;;
47599;SDS011;33323;52.124;6.018;2022-10-31T14:26:07;27.65;;;14.50;;
47599;SDS011;33323;52.124;6.018;2022-10-31T14:28:55;34.47;;;14.65;;
47599;SDS011;33323;52.124;6.018;2022-10-31T14:46:02;30.80;;;16.30;;
47599;SDS011;33323;52.124;6.018;2022-10-31T14:51:48;32.10;;;15.63;;
47599;SDS011;33323;52.124;6.018;2022-10-31T14:54:19;37.97;;;17.55;;
47599;SDS011;33323;52.124;6.018;2022-10-31T14:57:14;29.85;;;17.13;;
47599;SDS011;33323;52.124;6.018;2022-10-31T14:59:50;30.15;;;15.13;;
47599;SDS011;33323;52.124;6.018;2022-10-31T15:02:33;34.03;;;16.52;;
47599;SDS011;33323;52.124;6.018;2022-10-31T15:05:29;27.35;;;15.25;;
47599;SDS011;33323;52.124;6.018;2022-10-31T15:08:00;39.58;;;15.55;;
47599;SDS011;33323;52.124;6.018;2022-10-31T15:10:28;31.33;;;17.15;;
47599;SDS011;33323;52.124;6.018;2022-10-31T15:13:10;31.92;;;16.38;;
47599;SDS011;33323;52.124;6.018;2022-10-31T15:15:48;32.13;;;15.75;;
47599;SDS011;33323;52.124;6.018;2022-10-31T15:18:23;33.75;;;17.02;;
47599;SDS011;33323;52.124;6.018;2022-10-31T15:20:53;40.85;;;18.80;;
47599;SDS011;33323;52.124;6.018;2022-10-31T15:23:23;38.42;;;15.90;;
47599;SDS011;33323;52.124;6.018;2022-10-31T15:25:58;36.22;;;16.00;;
47599;SDS011;33323;52.124;6.018;2022-10-31T15:28:27;35.03;;;17.10;;
47599;SDS011;33323;52.124;6.018;2022-10-31T15:30:56;34.97;;;17.83;;
47599;SDS011;33323;52.124;6.018;2022-10-31T15:33:28;36.38;;;16.52;;
47599;SDS011;33323;52.124;6.018;2022-10-31T15:36:20;34.08;;;18.23;;
47599;SDS011;33323;52.124;6.018;2022-10-31T15:38:57;38.70;;;16.67;;
47599;SDS011;33323;52.124;6.018;2022-10-31T15:44:03;52.83;;;25.40;;
47599;SDS011;33323;52.124;6.018;2022-10-31T15:46:39;49.00;;;24.58;;
47599;SDS011;33323;52.124;6.018;2022-10-31T15:49:12;63.08;;;27.50;;
47599;SDS011;33323;52.124;6.018;2022-10-31T15:52:23;42.15;;;20.42;;
47599;SDS011;33323;52.124;6.018;2022-10-31T15:55:00;39.38;;;20.08;;
47599;SDS011;33323;52.124;6.018;2022-10-31T15:57:32;34.53;;;18.08;;
47599;SDS011;33323;52.124;6.018;2022-10-31T15:59:59;46.22;;;21.63;;
47599;SDS011;33323;52.124;6.018;2022-10-31T16:02:26;38.97;;;20.27;;
47599;SDS011;33323;52.124;6.018;2022-10-31T16:05:00;38.03;;;20.67;;
47599;SDS011;33323;52.124;6.018;2022-10-31T16:07:28;40.50;;;20.05;;
47599;SDS011;33323;52.124;6.018;2022-10-31T16:09:57;41.53;;;19.48;;
47599;SDS011;33323;52.124;6.018;2022-10-31T16:12:31;37.30;;;18.25;;
47599;SDS011;33323;52.124;6.018;2022-10-31T16:15:03;33.80;;;17.42;;
47599;SDS011;33323;52.124;6.018;2022-10-31T16:17:31;35.00;;;18.90;;
47599;SDS011;33323;52.124;6.018;2022-10-31T16:19:59;32.40;;;16.42;;
47599;SDS011;33323;52.124;6.018;2022-10-31T16:22:30;37.88;;;19.88;;
47599;SDS011;33323;52.124;6.018;2022-10-31T16:25:10;31.30;;;17.48;;
47599;SDS011;33323;52.124;6.018;2022-10-31T16:27:46;39.20;;;19.30;;
47599;SDS011;33323;52.124;6.018;2022-10-31T16:30:36;33.97;;;17.23;;
47599;SDS011;33323;52.124;6.018;2022-10-31T16:33:21;40.40;;;18.20;;
47599;SDS011;33323;52.124;6.018;2022-10-31T16:35:48;36.10;;;18.30;;
47599;SDS011;33323;52.124;6.018;2022-10-31T16:38:16;39.33;;;17.92;;
47599;SDS011;33323;52.124;6.018;2022-10-31T16:40:43;40.70;;;20.13;;
47599;SDS011;33323;52.124;6.018;2022-10-31T16:43:12;35.03;;;18.23;;
47599;SDS011;33323;52.124;6.018;2022-10-31T16:45:45;33.60;;;18.13;;
47599;SDS011;33323;52.124;6.018;2022-10-31T16:48:17;42.53;;;20.63;;
47599;SDS011;33323;52.124;6.018;2022-10-31T16:50:48;36.75;;;16.45;;
47599;SDS011;33323;52.124;6.018;2022-10-31T16:53:16;28.77;;;16.90;;
47599;SDS011;33323;52.124;6.018;2022-10-31T16:55:59;31.05;;;16.55;;
47599;SDS011;33323;52.124;6.018;2022-10-31T16:58:29;30.02;;;16.73;;
47599;SDS011;33323;52.124;6.018;2022-10-31T17:00:59;38.13;;;16.35;;
47599;SDS011;33323;52.124;6.018;2022-10-31T17:03:28;31.42;;;16.02;;
47599;SDS011;33323;52.124;6.018;2022-10-31T17:05:55;28.77;;;15.13;;
47599;SDS011;33323;52.124;6.018;2022-10-31T17:08:22;37.38;;;18.63;;
47599;SDS011;33323;52.124;6.018;2022-10-31T17:10:50;33.92;;;17.02;;
47599;SDS011;33323;52.124;6.018;2022-10-31T17:13:21;26.38;;;15.60;;
47599;SDS011;33323;52.124;6.018;2022-10-31T17:15:52;32.67;;;17.83;;
47599;SDS011;33323;52.124;6.018;2022-10-31T17:18:22;29.83;;;17.15;;
47599;SDS011;33323;52.124;6.018;2022-10-31T17:20:56;35.58;;;17.55;;
47599;SDS011;33323;52.124;6.018;2022-10-31T17:23:25;34.97;;;16.95;;
47599;SDS011;33323;52.124;6.018;2022-10-31T17:25:54;34.80;;;18.33;;
47599;SDS011;33323;52.124;6.018;2022-10-31T17:28:22;35.03;;;17.58;;
47599;SDS011;33323;52.124;6.018;2022-10-31T17:30:50;30.60;;;16.73;;